Time;durP1;ratioP1;P1;durP2;ratioP2;P2;SDS_P1;SDS_P2;PMS_P1;PMS_P2;Temp;Humidity;BMP_temperature;BMP_pressure;BME280_temperature;BME280_humidity;BME280_pressure;Samples;Min_cycle;Max_cycle;Signal;HPM_P1;HPM_P2
2023/07/21 00:01:21;;;;;;;;;;;;;;;22.81;27.34;97420.28;4980127;28;867;-78
2023/07/21 00:03:48;;;;;;;;;;;;;;;22.38;28.26;97409.84;4979697;28;1124;-78
2023/07/21 00:06:17;;;;;;;;;;;;;;;22.80;27.95;97418.72;4996290;28;883;-78
2023/07/21 00:08:43;;;;;;;;;;;;;;;22.41;28.50;97419.47;4994772;28;1454;-78
2023/07/21 00:11:09;;;;;;;;;;;;;;;23.01;27.40;97417.06;4979716;28;963;-78
2023/07/21 00:13:35;;;;;;;;;;;;;;;22.75;27.98;97416.47;4995538;28;988;-78
2023/07/21 00:16:03;;;;;;;;;;;;;;;22.76;28.08;97418.06;4995906;28;1905;-78
2023/07/21 00:18:30;;;;;;;;;;;;;;;22.49;28.42;97415.13;4995891;28;868;-79
2023/07/21 00:20:55;;;;;;;;;;;;;;;22.66;28.59;97416.44;4995723;28;855;-78
2023/07/21 00:23:22;;;;;;;;;;;;;;;22.71;28.51;97418.66;4994396;28;1494;-78
2023/07/21 00:25:48;;;;;;;;;;;;;;;22.84;27.99;97419.34;4987486;28;1312;-78
2023/07/21 00:28:14;;;;;;;;;;;;;;;22.57;28.66;97419.22;4993587;28;970;-79
2023/07/21 00:30:40;;;;;;;;;;;;;;;22.79;28.27;97416.31;4964086;28;879;-78
2023/07/21 00:33:05;;;;;;;;;;;;;;;22.48;28.73;97419.97;4948871;28;1395;-78
2023/07/21 00:35:31;;;;;;;;;;;;;;;22.71;28.33;97421.50;4957064;28;1915;-78
2023/07/21 00:38:00;;;;;;;;;;;;;;;22.61;28.88;97412.16;4956958;28;933;-78
2023/07/21 00:40:25;;;;;;;;;;;;;;;22.70;28.63;97414.25;4940038;28;1352;-78
2023/07/21 00:42:51;;;;;;;;;;;;;;;22.88;28.34;97413.56;4959928;28;781;-77
2023/07/21 00:45:16;;;;;;;;;;;;;;;22.60;28.94;97409.81;4976425;28;1411;-79
2023/07/21 00:47:42;;;;;;;;;;;;;;;22.98;28.30;97400.19;4960212;28;1248;-78
2023/07/21 00:50:08;;;;;;;;;;;;;;;22.62;28.80;97408.06;4976246;28;1112;-78
2023/07/21 00:52:34;;;;;;;;;;;;;;;22.67;28.96;97409.50;4960339;28;878;-79
2023/07/21 00:55:00;;;;;;;;;;;;;;;22.93;28.64;97412.16;4939658;29;1989;-77
2023/07/21 00:57:26;;;;;;;;;;;;;;;22.72;28.91;97408.91;4957189;29;1132;-78
2023/07/21 00:59:51;;;;;;;;;;;;;;;22.71;28.66;97410.16;4924833;29;1233;-78
2023/07/21 01:02:17;;;;;;;;;;;;;;;22.96;28.44;97408.38;4956647;29;1517;-78
2023/07/21 01:04:44;;;;;;;;;;;;;;;23.07;28.19;97405.88;4943710;28;1364;-78
2023/07/21 01:07:09;;;;;;;;;;;;;;;23.07;28.11;97408.72;4944268;28;1135;-77
2023/07/21 01:09:35;;;;;;;;;;;;;;;22.62;28.91;97412.94;4959446;28;1415;-78
2023/07/21 01:12:01;;;;;;;;;;;;;;;22.83;28.80;97412.09;4940937;29;959;-78
2023/07/21 01:14:29;;;;;;;;;;;;;;;22.56;29.36;97409.94;4956702;29;901;-78
2023/07/21 01:16:56;;;;;;;;;;;;;;;22.71;29.07;97410.16;4940786;29;1982;-78
2023/07/21 01:19:22;;;;;;;;;;;;;;;22.45;29.27;97403.13;4942419;29;1406;-79
2023/07/21 01:21:49;;;;;;;;;;;;;;;22.80;28.99;97415.88;4902911;29;1290;-78
2023/07/21 01:24:17;;;;;;;;;;;;;;;22.93;28.77;97415.78;4886669;29;1390;-79
2023/07/21 01:26:43;;;;;;;;;;;;;;;22.74;28.96;97414.91;4872043;29;1281;-78
2023/07/21 01:29:09;;;;;;;;;;;;;;;22.79;28.93;97417.09;4884447;29;1281;-78
2023/07/21 01:31:35;;;;;;;;;;;;;;;22.94;28.36;97416.56;4868843;29;1143;-78
2023/07/21 01:34:00;;;;;;;;;;;;;;;22.92;28.37;97433.28;4868829;29;1063;-79
2023/07/21 01:36:26;;;;;;;;;;;;;;;22.94;28.36;97433.59;4868398;29;1988;-78
2023/07/21 01:38:51;;;;;;;;;;;;;;;22.57;28.88;97428.53;4875092;29;1495;-77
2023/07/21 01:41:17;;;;;;;;;;;;;;;22.65;28.40;97434.72;4887331;29;1045;-78
2023/07/21 01:43:44;;;;;;;;;;;;;;;22.63;28.48;97437.22;4886921;29;1212;-78
2023/07/21 01:46:10;;;;;;;;;;;;;;;22.83;28.30;97445.34;4902696;29;938;-78
2023/07/21 01:48:36;;;;;;;;;;;;;;;22.88;28.19;97436.25;4902455;29;1264;-78
2023/07/21 01:51:01;;;;;;;;;;;;;;;23.11;27.71;97455.56;4903010;29;1002;-78
2023/07/21 01:53:28;;;;;;;;;;;;;;;22.94;28.19;97448.56;4898402;29;1571;-78
2023/07/21 01:56:02;;;;;;;;;;;;;;;22.64;28.59;97453.00;4884104;29;1993;-78
2023/07/21 01:58:29;;;;;;;;;;;;;;;22.71;28.60;97449.09;4909447;29;1249;-78
2023/07/21 02:00:55;;;;;;;;;;;;;;;22.91;28.52;97452.34;4957111;28;1216;-78
2023/07/21 02:03:21;;;;;;;;;;;;;;;22.85;28.45;97452.13;4963649;28;840;-78
2023/07/21 02:05:48;;;;;;;;;;;;;;;22.86;28.61;97456.53;4947576;28;781;-78
2023/07/21 02:08:13;;;;;;;;;;;;;;;22.76;28.79;97452.09;4987233;28;1367;-78
2023/07/21 02:10:40;;;;;;;;;;;;;;;22.83;28.45;97463.16;4983098;28;1173;-78
2023/07/21 02:13:21;;;;;;;;;;;;;;;22.75;28.98;97467.53;4982668;28;1295;-79
2023/07/21 02:15:47;;;;;;;;;;;;;;;22.96;28.56;97471.59;4982208;28;1914;-78
2023/07/21 02:18:15;;;;;;;;;;;;;;;22.63;28.70;97466.34;4981195;28;1380;-79
2023/07/21 02:20:41;;;;;;;;;;;;;;;22.73;28.98;97472.88;4981970;28;1195;-78
2023/07/21 02:23:08;;;;;;;;;;;;;;;22.65;28.96;97468.75;4977611;28;1344;-78
2023/07/21 02:25:36;;;;;;;;;;;;;;;22.67;28.83;97471.91;4962543;28;1185;-78
2023/07/21 02:28:02;;;;;;;;;;;;;;;22.86;28.58;97473.56;4962295;28;1250;-78
2023/07/21 02:30:29;;;;;;;;;;;;;;;22.56;28.91;97482.88;4961942;28;1206;-78
2023/07/21 02:32:54;;;;;;;;;;;;;;;22.60;29.09;97477.84;4946273;28;1309;-79
2023/07/21 02:35:20;;;;;;;;;;;;;;;22.65;28.96;97479.31;4962129;28;1910;-78
2023/07/21 02:37:45;;;;;;;;;;;;;;;22.60;28.90;97489.19;4926835;29;1479;-78
2023/07/21 02:40:12;;;;;;;;;;;;;;;22.58;28.98;97486.03;4922833;29;1465;-78
2023/07/21 02:42:37;;;;;;;;;;;;;;;22.60;28.83;97492.81;4939781;29;815;-78
2023/07/21 02:45:04;;;;;;;;;;;;;;;22.62;28.93;97489.50;4939471;29;1070;-78
2023/07/21 02:47:30;;;;;;;;;;;;;;;22.74;28.67;97485.00;4920386;29;1181;-78
2023/07/21 02:49:55;;;;;;;;;;;;;;;22.44;29.18;97500.75;4920444;29;872;-78
2023/07/21 02:52:21;;;;;;;;;;;;;;;22.74;28.49;97499.19;4936022;29;1321;-77
2023/07/21 02:54:51;;;;;;;;;;;;;;;22.80;28.57;97503.81;4904160;29;1366;-78
2023/07/21 02:57:17;;;;;;;;;;;;;;;22.67;28.99;97503.09;4920785;29;1915;-78
2023/07/21 02:59:43;;;;;;;;;;;;;;;22.80;28.77;97506.63;4920445;29;1288;-78
2023/07/21 03:02:08;;;;;;;;;;;;;;;22.74;28.50;97504.84;4899865;29;1482;-79
2023/07/21 03:04:43;;;;;;;;;;;;;;;22.65;29.15;97514.13;4885478;29;1487;-78
2023/07/21 03:07:11;;;;;;;;;;;;;;;22.34;29.33;97517.72;4904590;29;1710;-78
2023/07/21 03:09:39;;;;;;;;;;;;;;;22.62;29.15;97529.22;4904137;29;1353;-78
2023/07/21 03:12:15;;;;;;;;;;;;;;;22.72;28.84;97513.84;4921335;29;1313;-78
2023/07/21 03:14:59;;;;;;;;;;;;;;;22.51;28.91;97531.66;4935857;29;798;-78
2023/07/21 03:17:27;;;;;;;;;;;;;;;22.74;28.58;97528.34;4942101;29;1306;-78
2023/07/21 03:19:53;;;;;;;;;;;;;;;22.76;28.95;97537.19;4974278;28;914;-78
2023/07/21 03:22:19;;;;;;;;;;;;;;;22.92;28.67;97538.25;4958073;28;1080;-79
2023/07/21 03:24:46;;;;;;;;;;;;;;;22.91;28.47;97553.69;4963495;28;1496;-78
2023/07/21 03:27:15;;;;;;;;;;;;;;;22.54;29.00;97547.78;4968589;28;1377;-79
2023/07/21 03:29:40;;;;;;;;;;;;;;;22.44;29.20;97554.63;4922830;29;1157;-78
2023/07/21 03:32:08;;;;;;;;;;;;;;;22.67;29.26;97559.81;4923631;29;1319;-78
2023/07/21 03:34:35;;;;;;;;;;;;;;;22.66;29.25;97561.06;4922688;29;1187;-78
2023/07/21 03:37:04;;;;;;;;;;;;;;;22.85;29.04;97562.78;4923171;29;1976;-78
2023/07/21 03:39:31;;;;;;;;;;;;;;;22.83;29.01;97572.97;4923091;29;1145;-77
2023/07/21 03:41:56;;;;;;;;;;;;;;;22.84;28.98;97572.50;4950335;28;1370;-78
2023/07/21 03:44:22;;;;;;;;;;;;;;;22.74;29.23;97570.91;4925682;29;1070;-78
2023/07/21 03:46:47;;;;;;;;;;;;;;;23.11;28.53;97579.66;4957604;28;890;-78
2023/07/21 03:49:35;;;;;;;;;;;;;;;22.69;29.42;97582.03;4938080;29;1753;-78
2023/07/21 03:52:06;;;;;;;;;;;;;;;22.55;29.51;97584.16;4929719;28;1489;-78
2023/07/21 03:54:33;;;;;;;;;;;;;;;22.76;29.17;97593.91;4928960;28;1231;-79
2023/07/21 03:56:59;;;;;;;;;;;;;;;22.73;29.60;97588.38;4945068;28;1914;-78
2023/07/21 03:59:25;;;;;;;;;;;;;;;22.94;29.11;97598.13;4944640;28;972;-78
2023/07/21 04:01:52;;;;;;;;;;;;;;;22.55;29.59;97594.72;4967924;28;1148;-78
2023/07/21 04:04:18;;;;;;;;;;;;;;;22.49;29.95;97596.56;5015644;28;1022;-78
2023/07/21 04:06:43;;;;;;;;;;;;;;;22.63;29.47;97598.84;4951504;28;1104;-78
2023/07/21 04:09:12;;;;;;;;;;;;;;;22.69;29.63;97587.69;4982923;28;952;-78
2023/07/21 04:11:37;;;;;;;;;;;;;;;22.76;29.18;97588.25;5015529;28;794;-78
2023/07/21 04:14:03;;;;;;;;;;;;;;;23.01;29.05;97600.72;5017478;28;814;-78
2023/07/21 04:16:28;;;;;;;;;;;;;;;22.56;29.90;97594.25;4999869;28;1898;-78
2023/07/21 04:18:54;;;;;;;;;;;;;;;22.76;29.48;97602.41;5000035;28;833;-78
2023/07/21 04:21:19;;;;;;;;;;;;;;;22.82;29.66;97603.41;4983907;28;1148;-78
2023/07/21 04:23:45;;;;;;;;;;;;;;;23.00;29.25;97604.78;4983206;28;824;-79
2023/07/21 04:26:15;;;;;;;;;;;;;;;22.87;29.63;97614.16;4978834;28;1194;-78
2023/07/21 04:28:41;;;;;;;;;;;;;;;22.65;29.80;97610.53;4995241;28;865;-78
2023/07/21 04:31:09;;;;;;;;;;;;;;;22.94;29.62;97606.66;4962862;28;1294;-78
2023/07/21 04:33:42;;;;;;;;;;;;;;;22.93;29.65;97614.38;4963694;28;1421;-78
2023/07/21 04:36:08;;;;;;;;;;;;;;;22.85;29.58;97613.03;4975754;28;1910;-78
2023/07/21 04:38:34;;;;;;;;;;;;;;;22.90;29.71;97615.31;4976122;28;963;-77
2023/07/21 04:41:07;;;;;;;;;;;;;;;22.84;29.87;97617.91;4944941;28;1017;-77
2023/07/21 04:43:34;;;;;;;;;;;;;;;22.94;29.54;97618.00;4943593;28;1422;-78
2023/07/21 04:46:00;;;;;;;;;;;;;;;22.71;29.88;97617.19;4944488;28;1257;-79
2023/07/21 04:48:32;;;;;;;;;;;;;;;22.93;29.79;97620.03;4936955;29;1295;-79
2023/07/21 04:50:57;;;;;;;;;;;;;;;22.88;29.52;97626.31;4906544;29;1103;-79
2023/07/21 04:53:23;;;;;;;;;;;;;;;22.81;29.86;97629.41;4922344;29;1238;-79
2023/07/21 04:55:49;;;;;;;;;;;;;;;22.67;30.19;97625.03;4909938;29;1949;-78
2023/07/21 04:58:16;;;;;;;;;;;;;;;22.83;29.53;97630.50;4922302;29;1340;-79
2023/07/21 05:00:41;;;;;;;;;;;;;;;22.82;29.77;97637.44;4906802;29;868;-78
2023/07/21 05:03:07;;;;;;;;;;;;;;;22.68;29.99;97634.34;4891377;29;1170;-79
2023/07/21 05:05:33;;;;;;;;;;;;;;;22.91;29.36;97642.41;4906590;29;1326;-79
2023/07/21 05:08:01;;;;;;;;;;;;;;;23.10;28.90;97637.63;4954687;29;925;-78
2023/07/21 05:10:30;;;;;;;;;;;;;;;22.68;29.81;97637.97;4945263;29;1395;-78
2023/07/21 05:12:56;;;;;;;;;;;;;;;22.79;29.56;97646.84;4944362;29;1316;-78
2023/07/21 05:15:33;;;;;;;;;;;;;;;22.45;30.02;97652.59;4945297;29;1978;-79
2023/07/21 05:18:11;;;;;;;;;;;;;;;22.72;29.57;97660.53;4906141;29;1260;-79
2023/07/21 05:20:56;;;;;;;;;;;;;;;22.84;28.86;97662.50;4865983;29;948;-79
2023/07/21 05:23:38;;;;;;;;;;;;;;;22.89;28.88;97667.59;4850262;29;1141;-79
2023/07/21 05:26:12;;;;;;;;;;;;;;;22.84;29.09;97680.31;4876721;29;1526;-78
2023/07/21 05:28:38;;;;;;;;;;;;;;;22.85;29.18;97681.13;4868259;29;1060;-79
2023/07/21 05:31:04;;;;;;;;;;;;;;;23.00;28.57;97684.22;4884620;29;1205;-80
2023/07/21 05:33:39;;;;;;;;;;;;;;;22.81;29.09;97686.91;4870071;29;1341;-77
2023/07/21 05:36:09;;;;;;;;;;;;;;;22.81;29.03;97686.13;4881561;29;1919;-77
2023/07/21 05:38:35;;;;;;;;;;;;;;;22.81;29.06;97691.81;4902227;29;1130;-76
2023/07/21 05:41:01;;;;;;;;;;;;;;;22.80;28.79;97691.00;4903196;29;1157;-76
2023/07/21 05:43:29;;;;;;;;;;;;;;;22.94;28.65;97688.91;4902419;29;1470;-76
2023/07/21 05:45:55;;;;;;;;;;;;;;;22.81;28.74;97686.91;4902578;29;1011;-76
2023/07/21 05:48:20;;;;;;;;;;;;;;;22.93;28.57;97693.03;4883673;29;1200;-76
2023/07/21 05:50:48;;;;;;;;;;;;;;;22.53;29.19;97691.56;4868499;29;1228;-76
2023/07/21 05:53:14;;;;;;;;;;;;;;;22.79;28.95;97695.06;4868717;29;1251;-76
2023/07/21 05:55:40;;;;;;;;;;;;;;;22.98;28.53;97689.59;4891777;29;1895;-76
2023/07/21 05:58:08;;;;;;;;;;;;;;;22.78;28.87;97693.50;4942043;29;1383;-78
2023/07/21 06:00:36;;;;;;;;;;;;;;;22.81;28.81;97701.09;4928394;29;1229;-77
2023/07/21 06:03:02;;;;;;;;;;;;;;;22.75;28.70;97694.44;4927878;29;1598;-77
2023/07/21 06:05:29;;;;;;;;;;;;;;;22.91;28.58;97698.38;4943001;29;1152;-77
2023/07/21 06:08:12;;;;;;;;;;;;;;;22.84;28.92;97703.00;4932053;29;958;-77
2023/07/21 06:10:59;;;;;;;;;;;;;;;22.86;28.77;97706.19;4914133;29;1031;-77
2023/07/21 06:13:51;;;;;;;;;;;;;;;23.00;28.26;97709.78;4883153;29;1039;-77
2023/07/21 06:16:25;;;;;;;;;;;;;;;22.71;29.08;97705.13;4868922;29;1994;-77
2023/07/21 06:18:51;;;;;;;;;;;;;;;23.15;28.30;97707.97;4867749;29;1159;-77
2023/07/21 06:21:17;;;;;;;;;;;;;;;22.88;28.71;97717.88;4837268;29;1212;-76
2023/07/21 06:23:44;;;;;;;;;;;;;;;23.05;28.35;97712.00;4883236;29;1156;-77
2023/07/21 06:26:10;;;;;;;;;;;;;;;22.94;28.71;97715.25;4837520;29;1273;-78
2023/07/21 06:28:36;;;;;;;;;;;;;;;22.90;28.50;97719.47;4882989;29;1203;-76
2023/07/21 06:31:02;;;;;;;;;;;;;;;22.93;28.63;97732.75;4868165;29;1182;-77
2023/07/21 06:33:46;;;;;;;;;;;;;;;22.88;28.63;97725.59;4869895;29;910;-77
2023/07/21 06:36:47;;;;;;;;;;;;;;;22.80;28.64;97736.41;4827596;29;1966;-76
2023/07/21 06:39:27;;;;;;;;;;;;;;;23.17;27.75;97739.56;4800994;29;1294;-77
2023/07/21 06:42:02;;;;;;;;;;;;;;;22.70;28.68;97743.25;4814148;29;1195;-77
2023/07/21 06:44:42;;;;;;;;;;;;;;;22.90;28.41;97745.00;4791141;30;1424;-76
2023/07/21 06:47:26;;;;;;;;;;;;;;;22.90;28.41;97742.16;4799759;29;968;-77
2023/07/21 06:50:10;;;;;;;;;;;;;;;23.08;28.16;97733.81;4832644;29;1060;-77
2023/07/21 06:52:37;;;;;;;;;;;;;;;23.02;28.19;97742.13;4845923;29;1130;-76
2023/07/21 06:55:02;;;;;;;;;;;;;;;22.86;28.29;97745.91;4861086;29;1373;-77
2023/07/21 06:57:28;;;;;;;;;;;;;;;22.86;28.26;97740.22;4845912;29;1915;-77
2023/07/21 06:59:53;;;;;;;;;;;;;;;23.05;28.06;97741.22;4845873;29;1283;-76
2023/07/21 07:02:19;;;;;;;;;;;;;;;23.00;27.99;97743.81;4845775;29;1026;-76
2023/07/21 07:04:44;;;;;;;;;;;;;;;23.14;27.71;97748.97;4845524;29;1296;-77
2023/07/21 07:07:10;;;;;;;;;;;;;;;22.99;28.01;97747.91;4845677;29;1039;-77
2023/07/21 07:09:36;;;;;;;;;;;;;;;22.88;28.26;97749.09;4846246;29;1091;-77
2023/07/21 07:12:03;;;;;;;;;;;;;;;23.17;27.80;97748.06;4885660;29;1223;-77
2023/07/21 07:14:29;;;;;;;;;;;;;;;22.96;28.15;97743.97;4888961;29;1426;-77
2023/07/21 07:16:58;;;;;;;;;;;;;;;22.62;28.63;97758.91;4923289;29;1902;-76
2023/07/21 07:19:23;;;;;;;;;;;;;;;22.72;28.39;97759.78;4939007;29;1223;-77
2023/07/21 07:21:49;;;;;;;;;;;;;;;23.04;28.28;97762.31;4945747;29;1083;-77
2023/07/21 07:24:14;;;;;;;;;;;;;;;22.93;28.15;97761.91;4958098;29;1014;-77
2023/07/21 07:26:41;;;;;;;;;;;;;;;22.98;28.15;97757.69;4942259;29;1286;-76
2023/07/21 07:29:06;;;;;;;;;;;;;;;22.94;28.25;97754.19;4947195;28;1611;-76
2023/07/21 07:31:32;;;;;;;;;;;;;;;23.01;28.38;97768.13;4999239;28;803;-76
2023/07/21 07:33:57;;;;;;;;;;;;;;;22.88;28.32;97766.13;4995986;28;969;-77
2023/07/21 07:36:23;;;;;;;;;;;;;;;23.08;27.84;97757.28;4980489;28;1906;-77
2023/07/21 07:38:49;;;;;;;;;;;;;;;22.97;27.82;97761.78;4964087;28;1408;-76
2023/07/21 07:41:14;;;;;;;;;;;;;;;22.90;28.18;97759.19;4964398;28;999;-77
2023/07/21 07:43:40;;;;;;;;;;;;;;;22.90;28.08;97765.69;4996196;28;876;-76
2023/07/21 07:46:07;;;;;;;;;;;;;;;22.85;28.08;97767.03;4996652;28;850;-77
2023/07/21 07:48:35;;;;;;;;;;;;;;;22.81;28.21;97774.84;4980176;28;1102;-77
2023/07/21 07:51:07;;;;;;;;;;;;;;;22.83;28.22;97775.19;4996679;28;936;-76
2023/07/21 07:53:33;;;;;;;;;;;;;;;22.91;28.25;97769.31;4940970;29;931;-76
2023/07/21 07:55:58;;;;;;;;;;;;;;;22.76;28.48;97769.75;4941567;29;2060;-76
2023/07/21 07:58:24;;;;;;;;;;;;;;;22.96;28.08;97771.56;4957091;29;999;-77
2023/07/21 08:00:53;;;;;;;;;;;;;;;23.13;27.91;97775.78;4957668;29;810;-77
2023/07/21 08:03:19;;;;;;;;;;;;;;;22.99;28.22;97781.97;4941250;29;960;-76
2023/07/21 08:05:44;;;;;;;;;;;;;;;22.85;28.29;97789.72;4956896;28;1173;-77
2023/07/21 08:08:10;;;;;;;;;;;;;;;23.25;27.61;97794.78;4975683;28;762;-78
2023/07/21 08:10:35;;;;;;;;;;;;;;;22.84;28.30;97788.09;4976025;28;883;-77
2023/07/21 08:13:01;;;;;;;;;;;;;;;22.90;28.05;97791.22;4975670;28;949;-78
2023/07/21 08:15:27;;;;;;;;;;;;;;;22.92;28.18;97783.03;4975598;28;1969;-78
2023/07/21 08:17:53;;;;;;;;;;;;;;;22.65;28.42;97786.38;4959672;28;827;-77
2023/07/21 08:20:18;;;;;;;;;;;;;;;23.11;27.85;97784.75;4959993;28;975;-78
2023/07/21 08:22:47;;;;;;;;;;;;;;;23.23;27.83;97790.84;4959597;28;1253;-77
2023/07/21 08:25:13;;;;;;;;;;;;;;;23.02;28.15;97801.72;4984623;28;1056;-78
2023/07/21 08:27:38;;;;;;;;;;;;;;;23.16;27.50;97791.91;4924249;28;1241;-77
2023/07/21 08:30:04;;;;;;;;;;;;;;;22.76;28.38;97795.28;4956740;29;822;-78
2023/07/21 08:32:30;;;;;;;;;;;;;;;23.06;28.08;97793.88;4956794;29;896;-77
2023/07/21 08:34:55;;;;;;;;;;;;;;;23.14;27.81;97794.38;4956620;29;924;-77
2023/07/21 08:37:21;;;;;;;;;;;;;;;22.79;28.47;97802.09;4956648;29;1979;-78
2023/07/21 08:39:46;;;;;;;;;;;;;;;22.89;28.37;97800.94;4956861;29;1235;-78
2023/07/21 08:42:12;;;;;;;;;;;;;;;22.90;28.45;97796.06;4957219;29;931;-77
2023/07/21 08:44:38;;;;;;;;;;;;;;;22.75;28.21;97802.22;4956758;29;956;-78
2023/07/21 08:47:03;;;;;;;;;;;;;;;22.77;28.48;97801.75;4918580;29;980;-77
2023/07/21 08:49:29;;;;;;;;;;;;;;;23.20;27.71;97797.44;4918089;29;1275;-77
2023/07/21 08:51:54;;;;;;;;;;;;;;;23.10;28.00;97799.41;4918301;29;965;-78
2023/07/21 08:54:20;;;;;;;;;;;;;;;22.98;27.87;97808.75;4917802;29;784;-77
2023/07/21 08:56:45;;;;;;;;;;;;;;;22.98;28.01;97809.56;4918114;29;1914;-77
2023/07/21 08:59:11;;;;;;;;;;;;;;;22.97;28.20;97807.19;4918003;29;1213;-77
2023/07/21 09:01:36;;;;;;;;;;;;;;;23.01;28.03;97810.69;4918451;29;820;-78
2023/07/21 09:04:04;;;;;;;;;;;;;;;23.23;27.86;97814.34;4904038;29;1445;-78
2023/07/21 09:06:35;;;;;;;;;;;;;;;23.40;27.53;97810.03;4937094;29;1270;-77
2023/07/21 09:09:00;;;;;;;;;;;;;;;22.84;28.14;97819.31;4937614;29;1045;-78
2023/07/21 09:11:26;;;;;;;;;;;;;;;22.94;28.19;97822.28;4937353;29;827;-78
2023/07/21 09:13:53;;;;;;;;;;;;;;;22.95;28.29;97815.34;4937450;29;1242;-77
2023/07/21 09:16:19;;;;;;;;;;;;;;;22.77;28.42;97822.41;4937733;29;1903;-77
2023/07/21 09:18:45;;;;;;;;;;;;;;;23.23;27.88;97820.03;4969067;28;831;-77
2023/07/21 09:21:18;;;;;;;;;;;;;;;22.97;28.15;97830.66;4978367;28;1510;-78
2023/07/21 09:23:43;;;;;;;;;;;;;;;22.86;28.61;97819.66;4996366;28;894;-78
2023/07/21 09:26:09;;;;;;;;;;;;;;;22.89;28.36;97823.66;4997621;28;898;-78
2023/07/21 09:28:41;;;;;;;;;;;;;;;23.19;27.96;97819.34;4979620;28;874;-78
2023/07/21 09:31:08;;;;;;;;;;;;;;;23.27;28.06;97820.69;4980343;28;1017;-77
2023/07/21 09:33:40;;;;;;;;;;;;;;;23.21;27.81;97833.06;4997052;28;773;-78
2023/07/21 09:36:05;;;;;;;;;;;;;;;22.97;28.20;97829.88;4997489;28;1989;-77
2023/07/21 09:38:31;;;;;;;;;;;;;;;23.07;28.10;97823.81;4963735;28;1136;-77
2023/07/21 09:41:07;;;;;;;;;;;;;;;23.27;27.79;97823.53;4949438;28;1073;-79
2023/07/21 09:43:33;;;;;;;;;;;;;;;22.93;28.47;97829.19;5000570;28;942;-77
2023/07/21 09:46:08;;;;;;;;;;;;;;;23.08;28.05;97835.97;4960125;29;1120;-78
2023/07/21 09:48:34;;;;;;;;;;;;;;;23.07;28.41;97834.38;4959268;29;1082;-77
2023/07/21 09:51:03;;;;;;;;;;;;;;;23.12;27.99;97833.81;4943839;29;984;-78
2023/07/21 09:53:41;;;;;;;;;;;;;;;22.90;28.47;97830.09;4911116;29;1109;-77
2023/07/21 09:56:07;;;;;;;;;;;;;;;23.06;28.06;97838.47;4927346;29;1918;-78
2023/07/21 09:58:34;;;;;;;;;;;;;;;23.04;28.47;97833.25;4943023;29;1325;-78
2023/07/21 10:01:03;;;;;;;;;;;;;;;23.26;28.11;97827.63;4959759;29;910;-77
2023/07/21 10:03:29;;;;;;;;;;;;;;;23.19;28.03;97832.75;4927242;29;1113;-78
2023/07/21 10:05:55;;;;;;;;;;;;;;;23.15;28.30;97824.34;4927417;29;950;-78
2023/07/21 10:08:21;;;;;;;;;;;;;;;23.12;28.17;97830.97;4943030;29;960;-77
2023/07/21 10:10:47;;;;;;;;;;;;;;;23.29;28.10;97828.72;4943666;29;831;-77
2023/07/21 10:13:12;;;;;;;;;;;;;;;23.34;28.00;97830.97;4926872;29;934;-78
2023/07/21 10:15:40;;;;;;;;;;;;;;;23.25;27.88;97828.84;4942791;29;2009;-78
2023/07/21 10:18:06;;;;;;;;;;;;;;;23.12;28.28;97830.97;4962961;28;806;-77
2023/07/21 10:20:38;;;;;;;;;;;;;;;23.03;28.36;97839.38;4979276;28;894;-78
2023/07/21 10:23:04;;;;;;;;;;;;;;;23.11;28.19;97835.06;4980460;28;1035;-77
2023/07/21 10:25:44;;;;;;;;;;;;;;;23.03;28.19;97833.72;4980602;28;760;-77
2023/07/21 10:28:09;;;;;;;;;;;;;;;22.87;28.65;97831.81;4942484;29;878;-77
2023/07/21 10:30:35;;;;;;;;;;;;;;;23.13;28.31;97838.22;4958537;29;938;-77
2023/07/21 10:33:24;;;;;;;;;;;;;;;23.34;27.75;97831.78;4958545;29;878;-77
2023/07/21 10:35:50;;;;;;;;;;;;;;;23.39;27.81;97831.19;4958596;29;1989;-77
2023/07/21 10:38:15;;;;;;;;;;;;;;;23.34;28.07;97837.44;4957836;29;1122;-77
2023/07/21 10:40:41;;;;;;;;;;;;;;;23.21;28.13;97845.25;4958518;29;1125;-77
2023/07/21 10:43:07;;;;;;;;;;;;;;;23.28;28.04;97833.63;4958029;29;953;-77
2023/07/21 10:45:32;;;;;;;;;;;;;;;23.47;27.85;97833.78;4942667;29;1132;-77
2023/07/21 10:48:10;;;;;;;;;;;;;;;23.38;27.90;97829.59;4942545;29;1291;-77
2023/07/21 10:50:35;;;;;;;;;;;;;;;23.12;28.37;97831.75;4958234;28;956;-77
2023/07/21 10:53:01;;;;;;;;;;;;;;;23.30;28.05;97825.44;4957990;29;1016;-77
2023/07/21 10:55:26;;;;;;;;;;;;;;;23.12;28.17;97825.28;4958308;29;1985;-78
2023/07/21 10:57:53;;;;;;;;;;;;;;;23.09;28.52;97826.19;4958108;29;1146;-78
2023/07/21 11:00:18;;;;;;;;;;;;;;;23.23;28.04;97824.91;4978678;28;855;-77
2023/07/21 11:02:44;;;;;;;;;;;;;;;23.14;28.31;97828.44;4962650;28;913;-79
2023/07/21 11:05:10;;;;;;;;;;;;;;;23.07;28.50;97823.81;4962533;28;1095;-78
2023/07/21 11:07:36;;;;;;;;;;;;;;;22.99;28.42;97827.38;4979329;28;927;-78
2023/07/21 11:10:01;;;;;;;;;;;;;;;23.12;28.06;97830.97;4979707;28;861;-77
2023/07/21 11:12:27;;;;;;;;;;;;;;;23.19;28.34;97829.91;4962539;28;866;-78
2023/07/21 11:14:54;;;;;;;;;;;;;;;23.23;28.38;97825.69;4978204;28;890;-78
2023/07/21 11:17:20;;;;;;;;;;;;;;;22.96;28.63;97820.56;4974656;28;1926;-77
2023/07/21 11:19:46;;;;;;;;;;;;;;;23.04;28.51;97823.94;4961294;28;953;-78
2023/07/21 11:22:12;;;;;;;;;;;;;;;23.23;28.33;97820.03;4978281;28;1062;-78
2023/07/21 11:24:37;;;;;;;;;;;;;;;23.41;27.96;97819.34;4938470;29;1025;-78
2023/07/21 11:27:06;;;;;;;;;;;;;;;23.25;28.04;97811.03;4938699;29;952;-77
2023/07/21 11:29:32;;;;;;;;;;;;;;;23.37;28.02;97819.50;4938535;29;832;-78
2023/07/21 11:31:58;;;;;;;;;;;;;;;22.92;28.57;97821.94;4922686;29;927;-77
2023/07/21 11:34:24;;;;;;;;;;;;;;;22.94;28.89;97819.44;4938500;29;928;-78
2023/07/21 11:36:53;;;;;;;;;;;;;;;23.29;28.24;97803.97;4938800;29;1918;-77
2023/07/21 11:39:19;;;;;;;;;;;;;;;23.23;28.47;97808.66;4922393;29;1247;-78
2023/07/21 11:41:48;;;;;;;;;;;;;;;23.30;28.31;97814.06;4938245;29;910;-77
2023/07/21 11:44:17;;;;;;;;;;;;;;;23.22;28.32;97807.09;4938170;29;888;-78
2023/07/21 11:46:50;;;;;;;;;;;;;;;23.24;28.29;97815.91;4938515;29;974;-77
2023/07/21 11:49:16;;;;;;;;;;;;;;;23.35;28.15;97816.31;4937784;29;992;-77
2023/07/21 11:51:42;;;;;;;;;;;;;;;23.50;27.73;97815.78;4938040;29;1029;-77
2023/07/21 11:54:17;;;;;;;;;;;;;;;23.33;28.11;97810.31;4938361;29;1009;-78
2023/07/21 11:56:42;;;;;;;;;;;;;;;23.20;28.22;97811.63;4959997;28;1911;-77
2023/07/21 11:59:08;;;;;;;;;;;;;;;23.20;28.41;97805.94;4977584;28;946;-78
2023/07/21 12:01:35;;;;;;;;;;;;;;;23.42;28.19;97808.81;4978129;28;983;-77
2023/07/21 12:04:00;;;;;;;;;;;;;;;23.30;28.05;97808.38;4960612;28;1148;-77
2023/07/21 12:06:26;;;;;;;;;;;;;;;23.12;28.48;97819.63;4977469;28;936;-78
2023/07/21 12:08:52;;;;;;;;;;;;;;;23.36;28.21;97808.59;4978467;28;851;-77
2023/07/21 12:11:17;;;;;;;;;;;;;;;23.48;27.91;97824.00;4979223;28;894;-77
2023/07/21 12:13:43;;;;;;;;;;;;;;;23.22;28.33;97829.00;4978415;28;966;-79
2023/07/21 12:16:08;;;;;;;;;;;;;;;23.17;28.48;97827.53;4960827;28;1879;-77
2023/07/21 12:18:34;;;;;;;;;;;;;;;23.32;28.01;97817.25;4978075;28;899;-77
2023/07/21 12:20:59;;;;;;;;;;;;;;;23.23;28.51;97822.84;4961373;28;1176;-77
2023/07/21 12:23:25;;;;;;;;;;;;;;;23.13;28.63;97832.53;4960833;28;1132;-78
2023/07/21 12:25:50;;;;;;;;;;;;;;;23.05;28.61;97825.53;4960877;28;891;-78
2023/07/21 12:28:16;;;;;;;;;;;;;;;23.21;28.54;97833.88;4977952;28;903;-77
2023/07/21 12:30:42;;;;;;;;;;;;;;;22.93;28.69;97829.19;4960929;28;934;-78
2023/07/21 12:33:07;;;;;;;;;;;;;;;23.35;28.10;97822.00;4977994;28;791;-77
2023/07/21 12:35:33;;;;;;;;;;;;;;;23.17;28.23;97816.19;4961199;28;1891;-78
2023/07/21 12:37:59;;;;;;;;;;;;;;;23.25;28.40;97823.19;4960927;28;861;-77
2023/07/21 12:40:25;;;;;;;;;;;;;;;23.24;28.18;97826.47;4976754;28;942;-77
2023/07/21 12:42:50;;;;;;;;;;;;;;;23.35;28.21;97833.34;4978078;28;823;-78
2023/07/21 12:45:16;;;;;;;;;;;;;;;23.39;28.12;97827.56;4978376;28;1117;-77
2023/07/21 12:47:42;;;;;;;;;;;;;;;23.36;28.04;97826.44;4977619;28;1165;-77
2023/07/21 12:50:07;;;;;;;;;;;;;;;23.09;28.36;97835.50;4978154;28;915;-78
2023/07/21 12:52:33;;;;;;;;;;;;;;;23.10;28.29;97844.81;4977187;28;778;-77
2023/07/21 12:54:58;;;;;;;;;;;;;;;22.95;28.76;97844.53;4977813;28;864;-78
2023/07/21 12:57:24;;;;;;;;;;;;;;;23.20;28.40;97846.47;4977972;28;1906;-77
2023/07/21 12:59:49;;;;;;;;;;;;;;;23.24;28.17;97837.84;4976748;28;1132;-77
2023/07/21 13:02:15;;;;;;;;;;;;;;;22.98;28.75;97837.91;4978137;28;787;-77